createdAt,value
2019-05-11T00:07:19.966Z,7.33
2019-05-11T00:09:57.630Z,7.40
2019-05-11T00:12:20.584Z,7.34
2019-05-11T00:14:48.964Z,7.29
2019-05-11T00:17:17.618Z,7.26
2019-05-11T00:19:46.232Z,7.17
2019-05-11T00:22:14.806Z,7.11
2019-05-11T00:24:42.914Z,6.91
2019-05-11T00:27:11.136Z,6.86
2019-05-11T00:29:39.419Z,6.96
2019-05-11T00:32:07.389Z,6.98
2019-05-11T00:34:35.557Z,6.83
2019-05-11T00:37:03.667Z,6.77
2019-05-11T00:39:31.670Z,6.62
2019-05-11T00:41:59.659Z,6.66
2019-05-11T00:44:27.620Z,6.71
2019-05-11T00:46:55.561Z,6.51
2019-05-11T00:49:23.949Z,6.53
2019-05-11T00:51:51.968Z,6.60
2019-05-11T00:54:21.816Z,6.61
2019-05-11T00:56:55.545Z,6.64
2019-05-11T00:59:23.508Z,6.68
2019-05-11T01:01:51.515Z,6.57
2019-05-11T01:04:19.664Z,6.66
2019-05-11T01:06:47.769Z,6.60
2019-05-11T01:09:15.924Z,6.55
2019-05-11T01:11:46.297Z,6.53
2019-05-11T01:14:21.780Z,6.52
2019-05-11T01:16:49.950Z,6.49
2019-05-11T01:19:17.994Z,6.54
2019-05-11T01:21:46.110Z,6.50
2019-05-11T01:24:14.250Z,6.54
2019-05-11T01:26:42.617Z,6.60
2019-05-11T01:41:36.873Z,6.42
2019-05-11T01:44:04.873Z,6.41
2019-05-11T01:46:33.842Z,6.31
2019-05-11T01:49:01.919Z,6.17
2019-05-11T01:51:30.115Z,6.24
2019-05-11T01:53:59.178Z,6.09
2019-05-11T01:56:27.599Z,6.10
2019-05-11T01:58:55.970Z,6.05
2019-05-11T02:01:24.047Z,6.09
2019-05-11T02:15:46.009Z,5.95
2019-05-11T02:18:13.990Z,5.83
2019-05-11T02:20:41.983Z,5.88
2019-05-11T02:23:10.502Z,5.88
2019-05-11T02:25:38.652Z,5.82
2019-05-11T02:28:38.368Z,5.82
2019-05-11T02:31:08.995Z,5.73
2019-05-11T02:34:16.721Z,5.78
2019-05-11T02:37:01.328Z,5.73
2019-05-11T02:40:09.992Z,5.70
2019-05-11T02:42:47.979Z,5.70
2019-05-11T02:45:18.765Z,5.62
2019-05-11T02:51:32.422Z,5.67
2019-05-11T02:54:56.605Z,5.53
2019-05-11T02:57:27.145Z,5.52
2019-05-11T03:03:52.717Z,5.31
2019-05-11T03:06:21.061Z,5.43
2019-05-11T03:09:20.464Z,5.37
2019-05-11T03:12:18.899Z,5.39
2019-05-11T03:15:08.889Z,5.39
2019-05-11T03:17:46.183Z,5.32
2019-05-11T03:20:48.421Z,5.18
2019-05-11T03:26:35.203Z,5.25
2019-05-11T03:29:07.047Z,5.08
2019-05-11T03:31:35.965Z,5.18
2019-05-11T03:34:04.385Z,5.16
2019-05-11T03:36:42.001Z,4.97
2019-05-11T03:39:16.357Z,4.95
2019-05-11T03:41:45.052Z,5.00
2019-05-11T03:44:13.233Z,4.97
2019-05-11T03:46:41.333Z,5.00
2019-05-11T03:49:11.841Z,4.90
2019-05-11T03:51:39.986Z,4.96
2019-05-11T03:54:09.063Z,4.84
2019-05-11T03:56:39.706Z,4.78
2019-05-11T03:59:12.663Z,4.82
2019-05-11T04:01:40.863Z,4.91
2019-05-11T04:05:13.576Z,4.84
2019-05-11T04:08:47.026Z,4.67
2019-05-11T04:11:15.303Z,4.66
2019-05-11T04:14:05.816Z,4.58
2019-05-11T04:16:33.952Z,4.56
2019-05-11T04:19:01.894Z,4.57
2019-05-11T04:21:29.873Z,4.63
2019-05-11T04:23:57.843Z,4.47
2019-05-11T04:26:27.771Z,4.50
2019-05-11T04:28:55.724Z,4.54
2019-05-11T04:31:52.474Z,4.53
2019-05-11T04:34:29.210Z,4.54
2019-05-11T04:36:56.316Z,4.68
2019-05-11T04:39:24.419Z,4.59
2019-05-11T04:41:52.391Z,4.56
2019-05-11T04:44:20.310Z,4.58
2019-05-11T04:46:48.351Z,4.53
2019-05-11T04:49:16.285Z,4.58
2019-05-11T04:51:44.221Z,4.54
2019-05-11T04:54:12.156Z,4.67
2019-05-11T04:56:41.247Z,4.74
2019-05-11T04:59:12.322Z,4.66
2019-05-11T05:04:29.183Z,4.69
2019-05-11T05:07:33.978Z,4.67
2019-05-11T05:10:05.587Z,4.74
2019-05-11T05:12:35.584Z,4.62
2019-05-11T05:15:21.758Z,4.80
2019-05-11T05:17:50.087Z,4.75
2019-05-11T05:20:34.154Z,4.83
2019-05-11T05:26:16.892Z,4.97
2019-05-11T05:28:45.879Z,4.99
2019-05-11T05:41:24.381Z,5.09
2019-05-11T05:43:54.565Z,5.26
2019-05-11T05:46:35.164Z,5.35
2019-05-11T05:49:03.186Z,5.34
2019-05-11T05:51:31.116Z,5.45
2019-05-11T05:53:59.064Z,5.43
2019-05-11T05:56:28.672Z,5.53
2019-05-11T05:58:56.765Z,5.57
2019-05-11T06:01:24.669Z,5.67
2019-05-11T06:03:52.595Z,5.75
2019-05-11T06:06:20.520Z,5.85
2019-05-11T06:08:48.504Z,5.96
2019-05-11T06:11:16.385Z,6.11
2019-05-11T06:13:45.806Z,6.20
2019-05-11T06:16:13.978Z,6.40
2019-05-11T06:18:41.890Z,6.39
2019-05-11T06:21:09.788Z,6.47
2019-05-11T06:23:37.723Z,6.58
2019-05-11T06:26:05.635Z,6.74
2019-05-11T06:28:33.673Z,6.98
2019-05-11T06:31:01.572Z,7.16
2019-05-11T06:33:29.494Z,7.26
2019-05-11T06:35:57.393Z,7.60
2019-05-11T06:38:27.647Z,7.72
2019-05-11T06:40:55.556Z,7.95
2019-05-11T06:43:23.496Z,8.29
2019-05-11T06:45:51.432Z,8.47
2019-05-11T06:48:19.701Z,8.47
2019-05-11T06:50:47.674Z,8.57
2019-05-11T06:53:15.584Z,8.66
2019-05-11T06:55:43.503Z,8.78
2019-05-11T06:58:11.397Z,8.97
2019-05-11T07:00:39.340Z,9.27
2019-05-11T07:03:07.318Z,9.31
2019-05-11T07:05:35.320Z,9.32
2019-05-11T07:08:03.267Z,9.42
2019-05-11T07:10:31.212Z,9.47
2019-05-11T07:12:59.106Z,9.56
2019-05-11T07:15:27.101Z,9.73
2019-05-11T07:17:54.969Z,9.73
2019-05-11T07:20:24.120Z,10.08
2019-05-11T07:22:52.032Z,10.25
2019-05-11T07:25:19.936Z,10.58
2019-05-11T07:27:47.877Z,10.63
2019-05-11T07:30:15.956Z,10.56
2019-05-11T07:32:43.922Z,10.55
2019-05-11T07:35:11.913Z,10.81
2019-05-11T07:37:39.823Z,10.62
2019-05-11T07:40:08.335Z,10.97
2019-05-11T07:42:37.927Z,11.12
2019-05-11T07:45:08.692Z,11.44
2019-05-11T07:47:38.012Z,11.02
2019-05-11T07:50:08.062Z,11.49
2019-05-11T07:52:37.684Z,11.76
2019-05-11T07:55:05.276Z,11.40
2019-05-11T07:57:33.164Z,11.38
2019-05-11T08:00:01.180Z,11.89
2019-05-11T08:02:32.250Z,11.65
2019-05-11T08:04:58.836Z,11.89
2019-05-11T08:07:28.528Z,11.44
2019-05-11T08:09:58.552Z,12.11
2019-05-11T08:12:28.282Z,12.01
2019-05-11T08:15:04.924Z,11.86
2019-05-11T08:17:25.249Z,12.08
2019-05-11T08:19:53.179Z,12.27
2019-05-11T08:22:23.025Z,12.06
2019-05-11T08:24:50.732Z,12.63
2019-05-11T08:27:18.798Z,12.78
2019-05-11T08:29:48.828Z,12.62
2019-05-11T08:32:18.339Z,12.85
2019-05-11T08:34:46.383Z,13.20
2019-05-11T08:37:14.320Z,13.92
2019-05-11T08:39:42.217Z,13.65
2019-05-11T08:42:10.204Z,12.94
2019-05-11T08:44:38.247Z,13.26
2019-05-11T08:47:08.370Z,13.36
2019-05-11T08:49:37.888Z,13.40
2019-05-11T08:52:07.995Z,13.61
2019-05-11T08:54:35.065Z,13.59
2019-05-11T08:57:03.068Z,13.96
2019-05-11T08:59:30.973Z,14.02
2019-05-11T09:01:59.013Z,14.36
2019-05-11T09:04:28.815Z,14.37
2019-05-11T09:06:58.693Z,14.33
2019-05-11T09:09:28.496Z,13.52
2019-05-11T09:11:55.829Z,13.95
2019-05-11T09:14:23.733Z,14.69
2019-05-11T09:16:51.677Z,14.39
2019-05-11T09:19:19.572Z,13.73
2019-05-11T09:21:48.198Z,14.35
2019-05-11T09:24:18.719Z,14.08
2019-05-11T09:26:47.969Z,13.92
2019-05-11T09:29:17.761Z,14.68
2019-05-11T09:31:45.266Z,14.34
2019-05-11T09:34:13.228Z,14.82
2019-05-11T09:36:41.204Z,14.78
2019-05-11T09:39:09.247Z,14.99
2019-05-11T09:41:38.284Z,15.79
2019-05-11T09:44:08.657Z,15.15
2019-05-11T09:46:38.269Z,15.10
2019-05-11T09:49:08.067Z,15.56
2019-05-11T09:51:37.820Z,15.47
2019-05-11T09:54:07.671Z,15.62
2019-05-11T09:56:38.234Z,15.80
2019-05-11T09:59:08.826Z,14.80
2019-05-11T10:01:37.965Z,15.02
2019-05-11T10:04:08.778Z,14.82
2019-05-11T10:06:38.615Z,15.04
2019-05-11T10:09:08.161Z,15.07
2019-05-11T10:11:39.701Z,15.77
2019-05-11T10:14:08.235Z,16.36
2019-05-11T10:16:35.875Z,15.93
2019-05-11T10:19:04.189Z,15.60
2019-05-11T10:21:32.239Z,16.38
2019-05-11T10:24:00.171Z,15.69
2019-05-11T10:26:28.104Z,16.19
2019-05-11T10:28:58.336Z,16.53
2019-05-11T10:31:25.756Z,16.57
2019-05-11T10:33:53.673Z,16.70
2019-05-11T10:36:24.548Z,17.19
2019-05-11T10:38:52.472Z,16.16
2019-05-11T10:41:20.429Z,16.61
2019-05-11T10:43:49.117Z,16.33
2019-05-11T10:46:23.075Z,16.55
2019-05-11T10:48:48.166Z,17.19
2019-05-11T10:51:18.339Z,16.80
2019-05-11T10:53:51.087Z,17.26
2019-05-11T10:56:17.818Z,17.25
2019-05-11T10:58:48.022Z,16.69
2019-05-11T11:01:17.936Z,16.73
2019-05-11T11:03:45.149Z,17.10
2019-05-11T11:06:13.044Z,16.22
2019-05-11T11:08:40.945Z,16.24
2019-05-11T11:11:08.923Z,17.00
2019-05-11T11:13:38.692Z,16.97
2019-05-11T11:16:08.381Z,15.60
2019-05-11T11:18:38.141Z,15.81
2019-05-11T11:21:08.487Z,15.82
2019-05-11T11:23:35.964Z,15.53
2019-05-11T11:26:04.059Z,15.93
2019-05-11T11:28:31.959Z,16.53
2019-05-11T11:30:59.988Z,17.29
2019-05-11T11:33:27.953Z,17.63
2019-05-11T11:35:57.808Z,16.70
2019-05-11T11:38:25.491Z,17.14
2019-05-11T11:40:53.468Z,16.83
2019-05-11T11:43:21.360Z,16.66
2019-05-11T11:45:49.303Z,17.21
2019-05-11T11:48:18.927Z,17.13
2019-05-11T11:50:48.072Z,18.35
2019-05-11T11:53:16.190Z,15.56
2019-05-11T11:55:44.100Z,15.78
2019-05-11T11:58:11.969Z,16.68
2019-05-11T12:00:39.873Z,16.09
2019-05-11T12:03:08.129Z,16.83
2019-05-11T12:05:38.548Z,17.73
2019-05-11T12:08:08.142Z,17.33
2019-05-11T12:10:37.809Z,17.67
2019-05-11T12:13:05.332Z,16.40
2019-05-11T12:15:33.342Z,15.98
2019-05-11T12:18:01.201Z,15.48
2019-05-11T12:20:29.081Z,15.71
2019-05-11T12:22:58.167Z,17.34
2019-05-11T12:25:27.907Z,16.91
2019-05-11T12:27:57.742Z,16.01
2019-05-11T12:30:25.760Z,17.01
2019-05-11T12:32:53.657Z,17.69
2019-05-11T12:35:21.635Z,17.97
2019-05-11T12:37:49.556Z,18.21
2019-05-11T12:40:18.108Z,18.38
2019-05-11T12:42:48.604Z,16.91
2019-05-11T12:45:18.008Z,16.49
2019-05-11T12:47:47.890Z,16.57
2019-05-11T12:50:15.501Z,17.89
2019-05-11T12:52:43.408Z,17.52
2019-05-11T12:55:11.576Z,18.81
2019-05-11T12:57:39.512Z,18.65
2019-05-11T13:00:08.609Z,18.72
2019-05-11T13:02:38.863Z,16.89
2019-05-11T13:05:08.497Z,17.46
2019-05-11T13:07:36.265Z,19.02
2019-05-11T13:10:04.849Z,17.56
2019-05-11T13:12:32.781Z,16.41
2019-05-11T13:15:00.777Z,17.70
2019-05-11T13:17:37.355Z,18.28
2019-05-11T13:19:58.845Z,17.27
2019-05-11T13:22:28.937Z,17.82
2019-05-11T13:24:58.687Z,17.36
2019-05-11T13:27:28.220Z,18.14
2019-05-11T13:29:55.833Z,17.26
2019-05-11T13:32:23.777Z,18.15
2019-05-11T13:34:51.833Z,18.07
2019-05-11T13:37:19.755Z,17.65
2019-05-11T13:39:48.548Z,17.52
2019-05-11T13:42:16.669Z,16.78
2019-05-11T13:44:44.617Z,17.60
2019-05-11T13:47:12.876Z,17.35
2019-05-11T13:49:40.786Z,17.01
2019-05-11T13:52:09.477Z,18.44
2019-05-11T13:54:37.625Z,17.69
2019-05-11T13:57:07.834Z,16.94
2019-05-11T13:59:38.516Z,16.78
2019-05-11T14:02:10.146Z,18.21
2019-05-11T14:04:35.960Z,18.67
2019-05-11T14:07:03.917Z,17.48
2019-05-11T14:09:31.989Z,16.69
2019-05-11T14:11:59.873Z,18.06
2019-05-11T14:14:28.721Z,17.84
2019-05-11T14:16:58.847Z,18.76
2019-05-11T14:19:28.959Z,17.27
2019-05-11T14:21:58.126Z,18.08
2019-05-11T14:24:25.849Z,18.57
2019-05-11T14:26:53.861Z,18.17
2019-05-11T14:29:21.867Z,17.12
2019-05-11T14:31:49.916Z,17.64
2019-05-11T14:34:18.334Z,17.73
2019-05-11T14:36:47.981Z,18.58
2019-05-11T14:39:18.770Z,17.18
2019-05-11T14:41:45.729Z,18.40
2019-05-11T14:44:13.729Z,16.46
2019-05-11T14:46:41.598Z,17.19
2019-05-11T14:49:09.532Z,17.40
2019-05-11T14:51:39.153Z,17.68
2019-05-11T14:54:08.106Z,17.67
2019-05-11T14:56:38.069Z,17.79
2019-05-11T14:59:08.674Z,16.97
2019-05-11T15:01:38.112Z,17.77
2019-05-11T15:04:05.700Z,16.45
2019-05-11T15:06:33.654Z,16.67
2019-05-11T15:09:01.628Z,17.01
2019-05-11T15:11:29.553Z,17.29
2019-05-11T15:13:57.633Z,16.32
2019-05-11T15:16:27.736Z,16.02
2019-05-11T15:18:58.614Z,16.61
2019-05-11T15:21:28.058Z,16.75
2019-05-11T15:23:58.024Z,16.88
2019-05-11T15:26:27.797Z,16.34
2019-05-11T15:28:55.936Z,16.37
2019-05-11T15:31:23.934Z,16.70
2019-05-11T15:33:51.845Z,16.99
2019-05-11T15:36:19.833Z,15.95
2019-05-11T15:38:48.127Z,15.88
2019-05-11T15:41:17.689Z,15.32
2019-05-11T15:43:48.068Z,15.35
2019-05-11T15:46:19.398Z,15.21
2019-05-11T15:48:56.616Z,14.95
2019-05-11T15:51:15.512Z,14.84
2019-05-11T15:53:43.416Z,15.32
2019-05-11T15:56:11.416Z,15.12
2019-05-11T15:58:39.327Z,15.10
2019-05-11T16:01:07.947Z,15.24
2019-05-11T16:03:36.084Z,15.23
2019-05-11T16:06:04.132Z,15.24
2019-05-11T16:08:32.037Z,15.52
2019-05-11T16:10:59.961Z,15.36
2019-05-11T16:13:28.476Z,15.54
2019-05-11T16:15:57.736Z,14.80
2019-05-11T16:18:25.874Z,14.60
2019-05-11T16:20:53.930Z,14.41
2019-05-11T16:23:21.812Z,14.98
2019-05-11T16:25:52.019Z,14.89
2019-05-11T16:28:19.937Z,14.99
2019-05-11T16:30:48.256Z,14.82
2019-05-11T16:33:18.080Z,14.33
2019-05-11T16:35:45.994Z,14.74
2019-05-11T16:38:13.969Z,14.64
2019-05-11T16:40:44.928Z,14.83
2019-05-11T16:43:12.871Z,13.89
2019-05-11T16:45:40.833Z,14.25
2019-05-11T16:48:08.767Z,14.16
2019-05-11T16:50:38.403Z,14.36
2019-05-11T16:53:06.508Z,14.09
2019-05-11T16:55:34.420Z,14.31
2019-05-11T16:58:02.321Z,13.96
2019-05-11T17:00:30.340Z,13.62
2019-05-11T17:02:58.288Z,13.58
2019-05-11T17:05:29.801Z,13.64
2019-05-11T17:07:55.872Z,13.64
2019-05-11T17:10:23.772Z,13.34
2019-05-11T17:12:51.776Z,13.47
2019-05-11T17:15:19.773Z,12.73
2019-05-11T17:17:48.659Z,12.91
2019-05-11T17:20:18.678Z,12.76
2019-05-11T17:22:47.965Z,12.86
2019-05-11T17:25:19.316Z,13.02
2019-05-11T17:27:48.250Z,12.74
2019-05-11T17:30:15.795Z,13.06
2019-05-11T17:32:43.756Z,13.08
2019-05-11T17:35:11.756Z,12.91
2019-05-11T17:37:39.664Z,12.82
2019-05-11T17:40:09.021Z,12.60
2019-05-11T17:42:37.835Z,12.71
2019-05-11T17:45:08.103Z,12.48
2019-05-11T17:47:35.929Z,12.54
2019-05-11T17:50:04.591Z,12.35
2019-05-11T17:52:32.518Z,12.14
2019-05-11T17:55:00.429Z,12.11
2019-05-11T17:57:28.345Z,12.06
2019-05-11T17:59:57.940Z,12.09
2019-05-11T18:02:28.647Z,11.80
2019-05-11T18:04:58.302Z,11.72
2019-05-11T18:07:30.272Z,11.50
2019-05-11T18:09:58.655Z,11.68
2019-05-11T18:12:29.193Z,11.41
2019-05-11T18:14:58.721Z,11.46
2019-05-11T18:17:26.681Z,11.67
2019-05-11T18:19:54.612Z,11.44
2019-05-11T18:22:22.547Z,11.51
2019-05-11T18:24:50.670Z,11.25
2019-05-11T18:27:18.855Z,11.04
2019-05-11T18:29:48.560Z,11.19
2019-05-11T18:32:18.586Z,11.05
2019-05-11T18:34:48.452Z,10.98
2019-05-11T18:37:18.533Z,11.07
2019-05-11T18:39:48.502Z,10.97
2019-05-11T18:42:18.414Z,10.90
2019-05-11T18:44:48.186Z,10.77
2019-05-11T18:47:18.133Z,10.74
2019-05-11T18:49:48.440Z,10.74
2019-05-11T18:52:18.695Z,10.73
2019-05-11T18:54:47.860Z,10.44
2019-05-11T18:57:18.599Z,10.48
2019-05-11T18:59:48.258Z,10.30
2019-05-11T19:02:15.404Z,10.62
2019-05-11T19:04:43.451Z,10.03
2019-05-11T19:07:16.279Z,10.48
2019-05-11T19:09:41.229Z,9.88
2019-05-11T19:12:09.158Z,10.21
2019-05-11T19:14:38.535Z,10.18
2019-05-11T19:17:07.764Z,9.82
2019-05-11T19:19:37.921Z,9.88
2019-05-11T19:22:05.500Z,9.81
2019-05-11T19:24:33.484Z,9.75
2019-05-11T19:27:01.406Z,9.60
2019-05-11T19:29:29.440Z,9.80
2019-05-11T19:31:58.038Z,9.48
2019-05-11T19:34:27.998Z,9.97
2019-05-11T19:36:57.836Z,9.60
2019-05-11T19:39:25.325Z,9.23
2019-05-11T19:41:53.338Z,9.38
2019-05-11T19:44:21.300Z,9.57
2019-05-11T19:46:49.224Z,9.51
2019-05-11T19:49:18.962Z,9.51
2019-05-11T19:51:48.692Z,9.28
2019-05-11T19:54:18.595Z,9.35
2019-05-11T19:56:46.173Z,9.35
2019-05-11T19:59:14.064Z,9.33
2019-05-11T20:01:43.510Z,9.09
2019-05-11T20:04:11.400Z,9.01
2019-05-11T20:06:39.387Z,8.99
2019-05-11T20:09:08.801Z,8.73
2019-05-11T20:11:38.385Z,8.86
2019-05-11T20:14:08.028Z,8.89
2019-05-11T20:16:36.271Z,8.99
2019-05-11T20:19:04.406Z,8.76
2019-05-11T20:21:32.356Z,8.75
2019-05-11T20:24:00.249Z,8.80
2019-05-11T20:26:28.712Z,8.72
2019-05-11T20:28:58.647Z,8.59
2019-05-11T20:31:27.718Z,8.87
2019-05-11T20:33:55.763Z,8.63
2019-05-11T21:30:29.314Z,7.39
2019-05-11T21:37:01.026Z,7.25
2019-05-11T23:33:45.094Z,6.58
2019-05-11T23:39:28.521Z,6.39
2019-05-11T23:55:25.363Z,5.72
2019-05-11T23:57:53.387Z,4.30
